sensor_id;sensor_type;location;lat;lon;timestamp;P1;durP1;ratioP1;P2;durP2;ratioP2
4821;SDS011;2425;47.794;13.068;2023-03-01T00:01:24;15.33;;;11.90;;
4821;SDS011;2425;47.794;13.068;2023-03-01T00:03:53;12.77;;;11.37;;
4821;SDS011;2425;47.794;13.068;2023-03-01T00:06:20;12.30;;;11.00;;
4821;SDS011;2425;47.794;13.068;2023-03-01T00:08:47;15.33;;;10.50;;
4821;SDS011;2425;47.794;13.068;2023-03-01T00:11:14;13.03;;;11.00;;
4821;SDS011;2425;47.794;13.068;2023-03-01T00:13:44;12.27;;;11.07;;
4821;SDS011;2425;47.794;13.068;2023-03-01T00:16:12;12.80;;;10.43;;
4821;SDS011;2425;47.794;13.068;2023-03-01T00:18:40;12.10;;;10.83;;
4821;SDS011;2425;47.794;13.068;2023-03-01T00:21:06;12.03;;;10.40;;
4821;SDS011;2425;47.794;13.068;2023-03-01T00:23:33;10.47;;;9.47;;
4821;SDS011;2425;47.794;13.068;2023-03-01T00:26:01;16.97;;;9.87;;
4821;SDS011;2425;47.794;13.068;2023-03-01T00:28:27;11.30;;;10.17;;
4821;SDS011;2425;47.794;13.068;2023-03-01T00:30:55;11.50;;;10.17;;
4821;SDS011;2425;47.794;13.068;2023-03-01T00:33:22;13.63;;;9.77;;
4821;SDS011;2425;47.794;13.068;2023-03-01T00:35:49;14.77;;;10.40;;
4821;SDS011;2425;47.794;13.068;2023-03-01T00:38:16;12.67;;;10.30;;
4821;SDS011;2425;47.794;13.068;2023-03-01T00:40:42;9.90;;;8.90;;
4821;SDS011;2425;47.794;13.068;2023-03-01T00:43:09;12.20;;;11.00;;
4821;SDS011;2425;47.794;13.068;2023-03-01T00:45:36;12.27;;;10.50;;
4821;SDS011;2425;47.794;13.068;2023-03-01T00:48:04;10.67;;;9.57;;
4821;SDS011;2425;47.794;13.068;2023-03-01T00:50:31;10.70;;;9.60;;
4821;SDS011;2425;47.794;13.068;2023-03-01T00:52:58;10.50;;;9.50;;
4821;SDS011;2425;47.794;13.068;2023-03-01T00:55:25;12.17;;;10.43;;
4821;SDS011;2425;47.794;13.068;2023-03-01T00:57:51;11.53;;;10.10;;
4821;SDS011;2425;47.794;13.068;2023-03-01T01:00:19;11.13;;;10.03;;
4821;SDS011;2425;47.794;13.068;2023-03-01T01:02:46;10.03;;;9.07;;
4821;SDS011;2425;47.794;13.068;2023-03-01T01:05:14;11.00;;;9.90;;
4821;SDS011;2425;47.794;13.068;2023-03-01T01:07:46;11.07;;;9.70;;
4821;SDS011;2425;47.794;13.068;2023-03-01T01:10:13;10.23;;;9.13;;
4821;SDS011;2425;47.794;13.068;2023-03-01T01:12:42;11.17;;;9.70;;
4821;SDS011;2425;47.794;13.068;2023-03-01T01:15:10;11.03;;;9.70;;
4821;SDS011;2425;47.794;13.068;2023-03-01T01:17:39;11.90;;;8.90;;
4821;SDS011;2425;47.794;13.068;2023-03-01T01:20:06;10.20;;;9.07;;
4821;SDS011;2425;47.794;13.068;2023-03-01T01:22:35;9.63;;;8.63;;
4821;SDS011;2425;47.794;13.068;2023-03-01T01:25:02;9.77;;;8.87;;
4821;SDS011;2425;47.794;13.068;2023-03-01T01:27:29;10.60;;;9.40;;
4821;SDS011;2425;47.794;13.068;2023-03-01T01:29:56;12.00;;;8.60;;
4821;SDS011;2425;47.794;13.068;2023-03-01T01:32:22;11.73;;;10.03;;
4821;SDS011;2425;47.794;13.068;2023-03-01T01:34:49;9.30;;;8.30;;
4821;SDS011;2425;47.794;13.068;2023-03-01T01:37:16;12.40;;;9.37;;
4821;SDS011;2425;47.794;13.068;2023-03-01T01:39:44;10.77;;;9.77;;
4821;SDS011;2425;47.794;13.068;2023-03-01T01:42:12;9.33;;;8.43;;
4821;SDS011;2425;47.794;13.068;2023-03-01T01:44:42;9.80;;;8.80;;
4821;SDS011;2425;47.794;13.068;2023-03-01T01:47:11;9.60;;;8.60;;
4821;SDS011;2425;47.794;13.068;2023-03-01T01:49:41;10.23;;;8.73;;
4821;SDS011;2425;47.794;13.068;2023-03-01T01:52:10;8.83;;;7.97;;
4821;SDS011;2425;47.794;13.068;2023-03-01T01:54:41;10.10;;;9.10;;
4821;SDS011;2425;47.794;13.068;2023-03-01T01:57:11;10.30;;;9.30;;
4821;SDS011;2425;47.794;13.068;2023-03-01T01:59:39;9.13;;;8.33;;
4821;SDS011;2425;47.794;13.068;2023-03-01T02:02:08;9.50;;;8.50;;
4821;SDS011;2425;47.794;13.068;2023-03-01T02:04:35;9.97;;;8.97;;
4821;SDS011;2425;47.794;13.068;2023-03-01T02:07:03;9.50;;;8.50;;
4821;SDS011;2425;47.794;13.068;2023-03-01T02:09:35;10.53;;;8.77;;
4821;SDS011;2425;47.794;13.068;2023-03-01T02:12:03;9.80;;;8.77;;
4821;SDS011;2425;47.794;13.068;2023-03-01T02:14:31;9.03;;;8.13;;
4821;SDS011;2425;47.794;13.068;2023-03-01T02:16:57;10.70;;;8.77;;
4821;SDS011;2425;47.794;13.068;2023-03-01T02:19:31;9.67;;;8.67;;
4821;SDS011;2425;47.794;13.068;2023-03-01T02:22:06;9.30;;;8.20;;
4821;SDS011;2425;47.794;13.068;2023-03-01T02:24:40;9.80;;;8.83;;
4821;SDS011;2425;47.794;13.068;2023-03-01T02:27:15;9.60;;;8.43;;
4821;SDS011;2425;47.794;13.068;2023-03-01T02:29:43;9.37;;;8.43;;
4821;SDS011;2425;47.794;13.068;2023-03-01T02:32:10;9.30;;;8.17;;
4821;SDS011;2425;47.794;13.068;2023-03-01T02:34:36;9.00;;;8.10;;
4821;SDS011;2425;47.794;13.068;2023-03-01T02:37:04;8.83;;;7.93;;
4821;SDS011;2425;47.794;13.068;2023-03-01T02:39:34;7.43;;;6.73;;
4821;SDS011;2425;47.794;13.068;2023-03-01T02:42:07;9.97;;;8.00;;
4821;SDS011;2425;47.794;13.068;2023-03-01T02:44:36;8.90;;;8.00;;
4821;SDS011;2425;47.794;13.068;2023-03-01T02:47:04;9.33;;;8.43;;
4821;SDS011;2425;47.794;13.068;2023-03-01T02:49:32;9.13;;;8.20;;
4821;SDS011;2425;47.794;13.068;2023-03-01T02:52:07;8.47;;;7.73;;
4821;SDS011;2425;47.794;13.068;2023-03-01T02:54:39;8.73;;;7.93;;
4821;SDS011;2425;47.794;13.068;2023-03-01T02:57:08;8.60;;;7.80;;
4821;SDS011;2425;47.794;13.068;2023-03-01T02:59:35;8.90;;;8.10;;
4821;SDS011;2425;47.794;13.068;2023-03-01T03:02:05;9.43;;;8.50;;
4821;SDS011;2425;47.794;13.068;2023-03-01T03:04:32;8.70;;;7.87;;
4821;SDS011;2425;47.794;13.068;2023-03-01T03:06:59;8.50;;;7.67;;
4821;SDS011;2425;47.794;13.068;2023-03-01T03:09:26;9.80;;;8.80;;
4821;SDS011;2425;47.794;13.068;2023-03-01T03:11:53;7.80;;;7.10;;
4821;SDS011;2425;47.794;13.068;2023-03-01T03:14:20;8.53;;;7.53;;
4821;SDS011;2425;47.794;13.068;2023-03-01T03:16:47;8.37;;;7.57;;
4821;SDS011;2425;47.794;13.068;2023-03-01T03:19:17;8.00;;;7.20;;
4821;SDS011;2425;47.794;13.068;2023-03-01T03:21:44;9.40;;;8.23;;
4821;SDS011;2425;47.794;13.068;2023-03-01T03:24:11;8.80;;;7.90;;
4821;SDS011;2425;47.794;13.068;2023-03-01T03:26:38;9.57;;;8.57;;
4821;SDS011;2425;47.794;13.068;2023-03-01T03:29:04;8.70;;;7.87;;
4821;SDS011;2425;47.794;13.068;2023-03-01T03:31:31;8.43;;;7.63;;
4821;SDS011;2425;47.794;13.068;2023-03-01T03:33:58;9.17;;;8.20;;
4821;SDS011;2425;47.794;13.068;2023-03-01T03:36:26;8.43;;;7.63;;
4821;SDS011;2425;47.794;13.068;2023-03-01T03:38:53;7.83;;;7.10;;
4821;SDS011;2425;47.794;13.068;2023-03-01T03:41:20;7.70;;;7.00;;
4821;SDS011;2425;47.794;13.068;2023-03-01T03:43:47;8.20;;;7.40;;
4821;SDS011;2425;47.794;13.068;2023-03-01T03:46:14;9.90;;;7.30;;
4821;SDS011;2425;47.794;13.068;2023-03-01T03:48:42;8.63;;;7.83;;
4821;SDS011;2425;47.794;13.068;2023-03-01T03:51:10;9.13;;;7.63;;
4821;SDS011;2425;47.794;13.068;2023-03-01T03:53:39;8.90;;;8.00;;
4821;SDS011;2425;47.794;13.068;2023-03-01T03:56:06;8.10;;;7.30;;
4821;SDS011;2425;47.794;13.068;2023-03-01T03:58:33;8.03;;;7.20;;
4821;SDS011;2425;47.794;13.068;2023-03-01T04:01:00;8.83;;;7.93;;
4821;SDS011;2425;47.794;13.068;2023-03-01T04:03:27;8.57;;;7.70;;
4821;SDS011;2425;47.794;13.068;2023-03-01T04:05:56;9.90;;;8.80;;
4821;SDS011;2425;47.794;13.068;2023-03-01T04:08:24;8.17;;;7.37;;
4821;SDS011;2425;47.794;13.068;2023-03-01T04:10:53;8.30;;;7.27;;
4821;SDS011;2425;47.794;13.068;2023-03-01T04:13:23;9.00;;;8.10;;
4821;SDS011;2425;47.794;13.068;2023-03-01T04:15:50;8.10;;;7.30;;
4821;SDS011;2425;47.794;13.068;2023-03-01T04:18:18;7.07;;;6.37;;
4821;SDS011;2425;47.794;13.068;2023-03-01T04:20:46;7.43;;;6.77;;
4821;SDS011;2425;47.794;13.068;2023-03-01T04:23:13;8.07;;;7.27;;
4821;SDS011;2425;47.794;13.068;2023-03-01T04:25:45;8.27;;;7.47;;
4821;SDS011;2425;47.794;13.068;2023-03-01T04:28:20;7.67;;;6.77;;
4821;SDS011;2425;47.794;13.068;2023-03-01T04:30:49;7.80;;;7.00;;
4821;SDS011;2425;47.794;13.068;2023-03-01T04:33:16;7.63;;;6.93;;
4821;SDS011;2425;47.794;13.068;2023-03-01T04:35:43;7.20;;;6.60;;
4821;SDS011;2425;47.794;13.068;2023-03-01T04:38:10;6.77;;;6.20;;
4821;SDS011;2425;47.794;13.068;2023-03-01T04:40:37;7.33;;;6.73;;
4821;SDS011;2425;47.794;13.068;2023-03-01T04:43:04;9.40;;;8.40;;
4821;SDS011;2425;47.794;13.068;2023-03-01T04:45:33;8.57;;;6.50;;
4821;SDS011;2425;47.794;13.068;2023-03-01T04:48:00;6.17;;;5.57;;
4821;SDS011;2425;47.794;13.068;2023-03-01T04:50:27;7.57;;;6.90;;
4821;SDS011;2425;47.794;13.068;2023-03-01T04:52:54;10.93;;;6.53;;
4821;SDS011;2425;47.794;13.068;2023-03-01T04:55:23;7.93;;;7.13;;
4821;SDS011;2425;47.794;13.068;2023-03-01T04:57:51;7.30;;;6.53;;
4821;SDS011;2425;47.794;13.068;2023-03-01T05:00:17;7.43;;;6.67;;
4821;SDS011;2425;47.794;13.068;2023-03-01T05:02:50;8.07;;;7.30;;
4821;SDS011;2425;47.794;13.068;2023-03-01T05:05:19;6.50;;;6.00;;
4821;SDS011;2425;47.794;13.068;2023-03-01T05:07:50;7.63;;;6.90;;
4821;SDS011;2425;47.794;13.068;2023-03-01T05:10:20;7.60;;;6.43;;
4821;SDS011;2425;47.794;13.068;2023-03-01T05:12:47;6.73;;;6.23;;
4821;SDS011;2425;47.794;13.068;2023-03-01T05:15:14;7.53;;;6.83;;
4821;SDS011;2425;47.794;13.068;2023-03-01T05:17:41;7.73;;;7.03;;
4821;SDS011;2425;47.794;13.068;2023-03-01T05:20:10;7.33;;;6.70;;
4821;SDS011;2425;47.794;13.068;2023-03-01T05:22:37;7.70;;;7.00;;
4821;SDS011;2425;47.794;13.068;2023-03-01T05:25:04;7.50;;;6.80;;
4821;SDS011;2425;47.794;13.068;2023-03-01T05:27:32;8.03;;;7.23;;
4821;SDS011;2425;47.794;13.068;2023-03-01T05:29:59;7.10;;;6.50;;
4821;SDS011;2425;47.794;13.068;2023-03-01T05:32:38;6.60;;;6.00;;
4821;SDS011;2425;47.794;13.068;2023-03-01T05:35:06;8.20;;;7.30;;
4821;SDS011;2425;47.794;13.068;2023-03-01T05:37:35;8.40;;;7.67;;
4821;SDS011;2425;47.794;13.068;2023-03-01T05:40:02;7.70;;;6.90;;
4821;SDS011;2425;47.794;13.068;2023-03-01T05:42:30;7.83;;;7.03;;
4821;SDS011;2425;47.794;13.068;2023-03-01T05:44:57;7.37;;;6.67;;
4821;SDS011;2425;47.794;13.068;2023-03-01T05:47:23;8.00;;;7.30;;
4821;SDS011;2425;47.794;13.068;2023-03-01T05:49:50;7.17;;;6.57;;
4821;SDS011;2425;47.794;13.068;2023-03-01T05:52:17;8.00;;;7.20;;
4821;SDS011;2425;47.794;13.068;2023-03-01T05:54:45;7.70;;;6.83;;
4821;SDS011;2425;47.794;13.068;2023-03-01T05:57:12;7.30;;;6.70;;
4821;SDS011;2425;47.794;13.068;2023-03-01T05:59:38;7.27;;;6.67;;
4821;SDS011;2425;47.794;13.068;2023-03-01T06:02:05;7.20;;;6.50;;
4821;SDS011;2425;47.794;13.068;2023-03-01T06:04:32;7.53;;;6.83;;
4821;SDS011;2425;47.794;13.068;2023-03-01T06:06:58;7.00;;;6.40;;
4821;SDS011;2425;47.794;13.068;2023-03-01T06:09:25;7.30;;;6.70;;
4821;SDS011;2425;47.794;13.068;2023-03-01T06:11:53;6.57;;;6.03;;
4821;SDS011;2425;47.794;13.068;2023-03-01T06:14:20;7.40;;;6.67;;
4821;SDS011;2425;47.794;13.068;2023-03-01T06:16:47;7.03;;;6.33;;
4821;SDS011;2425;47.794;13.068;2023-03-01T06:19:13;8.00;;;7.00;;
4821;SDS011;2425;47.794;13.068;2023-03-01T06:21:40;6.03;;;5.53;;
4821;SDS011;2425;47.794;13.068;2023-03-01T06:24:07;6.90;;;6.30;;
4821;SDS011;2425;47.794;13.068;2023-03-01T06:26:34;5.90;;;5.40;;
4821;SDS011;2425;47.794;13.068;2023-03-01T06:29:02;6.10;;;5.40;;
4821;SDS011;2425;47.794;13.068;2023-03-01T06:31:29;6.33;;;5.80;;
4821;SDS011;2425;47.794;13.068;2023-03-01T06:33:55;5.60;;;5.20;;
4821;SDS011;2425;47.794;13.068;2023-03-01T06:36:22;6.70;;;6.10;;
4821;SDS011;2425;47.794;13.068;2023-03-01T06:38:49;6.40;;;5.37;;
4821;SDS011;2425;47.794;13.068;2023-03-01T06:41:15;6.00;;;5.43;;
4821;SDS011;2425;47.794;13.068;2023-03-01T06:43:42;9.23;;;6.23;;
4821;SDS011;2425;47.794;13.068;2023-03-01T06:46:10;6.37;;;5.77;;
4821;SDS011;2425;47.794;13.068;2023-03-01T06:48:37;6.87;;;6.27;;
4821;SDS011;2425;47.794;13.068;2023-03-01T06:51:04;6.93;;;6.20;;
4821;SDS011;2425;47.794;13.068;2023-03-01T06:53:30;6.83;;;6.07;;
4821;SDS011;2425;47.794;13.068;2023-03-01T06:55:57;5.93;;;5.47;;
4821;SDS011;2425;47.794;13.068;2023-03-01T06:58:25;5.90;;;5.40;;
4821;SDS011;2425;47.794;13.068;2023-03-01T07:00:52;5.07;;;4.70;;
4821;SDS011;2425;47.794;13.068;2023-03-01T07:03:20;6.70;;;6.10;;
4821;SDS011;2425;47.794;13.068;2023-03-01T07:05:48;6.30;;;5.77;;
4821;SDS011;2425;47.794;13.068;2023-03-01T07:08:16;6.50;;;5.90;;
4821;SDS011;2425;47.794;13.068;2023-03-01T07:10:43;6.33;;;5.73;;
4821;SDS011;2425;47.794;13.068;2023-03-01T07:13:10;5.40;;;5.00;;
4821;SDS011;2425;47.794;13.068;2023-03-01T07:15:36;7.67;;;6.27;;
4821;SDS011;2425;47.794;13.068;2023-03-01T07:18:03;7.47;;;6.77;;
4821;SDS011;2425;47.794;13.068;2023-03-01T07:20:31;6.93;;;6.33;;
4821;SDS011;2425;47.794;13.068;2023-03-01T07:22:58;6.53;;;5.93;;
4821;SDS011;2425;47.794;13.068;2023-03-01T07:25:25;6.30;;;5.80;;
4821;SDS011;2425;47.794;13.068;2023-03-01T07:27:52;6.80;;;6.20;;
4821;SDS011;2425;47.794;13.068;2023-03-01T07:30:19;6.40;;;5.83;;
4821;SDS011;2425;47.794;13.068;2023-03-01T07:32:46;6.07;;;5.57;;
4821;SDS011;2425;47.794;13.068;2023-03-01T07:35:13;6.10;;;5.43;;
4821;SDS011;2425;47.794;13.068;2023-03-01T07:37:42;6.00;;;5.40;;
4821;SDS011;2425;47.794;13.068;2023-03-01T07:40:09;5.87;;;5.37;;
4821;SDS011;2425;47.794;13.068;2023-03-01T07:42:37;7.10;;;6.47;;
4821;SDS011;2425;47.794;13.068;2023-03-01T07:45:04;6.30;;;5.80;;
4821;SDS011;2425;47.794;13.068;2023-03-01T07:47:31;6.50;;;5.80;;
4821;SDS011;2425;47.794;13.068;2023-03-01T07:49:58;6.30;;;5.70;;
4821;SDS011;2425;47.794;13.068;2023-03-01T07:52:26;7.30;;;5.83;;
4821;SDS011;2425;47.794;13.068;2023-03-01T07:54:54;6.20;;;5.70;;
4821;SDS011;2425;47.794;13.068;2023-03-01T07:57:21;10.70;;;5.87;;
4821;SDS011;2425;47.794;13.068;2023-03-01T07:59:47;6.80;;;5.10;;
4821;SDS011;2425;47.794;13.068;2023-03-01T08:02:14;5.67;;;5.03;;
4821;SDS011;2425;47.794;13.068;2023-03-01T08:04:41;6.00;;;5.50;;
4821;SDS011;2425;47.794;13.068;2023-03-01T08:07:08;11.10;;;6.77;;
4821;SDS011;2425;47.794;13.068;2023-03-01T08:09:35;7.60;;;6.90;;
4821;SDS011;2425;47.794;13.068;2023-03-01T08:12:04;19.43;;;14.30;;
4821;SDS011;2425;47.794;13.068;2023-03-01T08:14:31;16.10;;;12.23;;
4821;SDS011;2425;47.794;13.068;2023-03-01T08:16:58;13.60;;;11.83;;
4821;SDS011;2425;47.794;13.068;2023-03-01T08:19:25;10.93;;;7.83;;
4821;SDS011;2425;47.794;13.068;2023-03-01T08:21:53;18.50;;;7.50;;
4821;SDS011;2425;47.794;13.068;2023-03-01T08:24:19;8.90;;;6.40;;
4821;SDS011;2425;47.794;13.068;2023-03-01T08:26:47;9.07;;;6.73;;
4821;SDS011;2425;47.794;13.068;2023-03-01T08:29:15;11.13;;;6.87;;
4821;SDS011;2425;47.794;13.068;2023-03-01T08:31:42;10.73;;;8.37;;
4821;SDS011;2425;47.794;13.068;2023-03-01T08:34:10;23.90;;;17.37;;
4821;SDS011;2425;47.794;13.068;2023-03-01T08:36:39;96.50;;;65.17;;
4821;SDS011;2425;47.794;13.068;2023-03-01T08:39:07;45.27;;;34.00;;
4821;SDS011;2425;47.794;13.068;2023-03-01T08:41:34;30.10;;;23.67;;
4821;SDS011;2425;47.794;13.068;2023-03-01T08:44:01;21.20;;;17.47;;
4821;SDS011;2425;47.794;13.068;2023-03-01T08:46:32;27.83;;;20.40;;
4821;SDS011;2425;47.794;13.068;2023-03-01T08:49:04;24.23;;;17.57;;
4821;SDS011;2425;47.794;13.068;2023-03-01T08:51:42;18.70;;;15.23;;
4821;SDS011;2425;47.794;13.068;2023-03-01T08:54:10;20.40;;;16.07;;
4821;SDS011;2425;47.794;13.068;2023-03-01T08:56:38;19.30;;;14.90;;
4821;SDS011;2425;47.794;13.068;2023-03-01T09:02:16;15.00;;;12.70;;
4821;SDS011;2425;47.794;13.068;2023-03-01T09:04:44;16.40;;;13.10;;
4821;SDS011;2425;47.794;13.068;2023-03-01T09:07:10;84.93;;;58.07;;
4821;SDS011;2425;47.794;13.068;2023-03-01T09:09:37;208.73;;;132.30;;
4821;SDS011;2425;47.794;13.068;2023-03-01T09:12:04;116.10;;;72.67;;
4821;SDS011;2425;47.794;13.068;2023-03-01T09:14:32;66.70;;;47.70;;
4821;SDS011;2425;47.794;13.068;2023-03-01T09:16:59;75.57;;;52.27;;
4821;SDS011;2425;47.794;13.068;2023-03-01T09:19:29;97.43;;;55.50;;
4821;SDS011;2425;47.794;13.068;2023-03-01T09:21:56;75.37;;;52.00;;
4821;SDS011;2425;47.794;13.068;2023-03-01T09:24:23;51.03;;;39.10;;
4821;SDS011;2425;47.794;13.068;2023-03-01T09:26:52;51.40;;;37.30;;
4821;SDS011;2425;47.794;13.068;2023-03-01T09:29:20;85.97;;;53.93;;
4821;SDS011;2425;47.794;13.068;2023-03-01T09:31:47;61.70;;;42.07;;
4821;SDS011;2425;47.794;13.068;2023-03-01T09:34:13;56.93;;;39.57;;
4821;SDS011;2425;47.794;13.068;2023-03-01T09:36:42;63.93;;;42.97;;
4821;SDS011;2425;47.794;13.068;2023-03-01T09:39:09;65.50;;;48.30;;
4821;SDS011;2425;47.794;13.068;2023-03-01T09:41:46;67.93;;;44.70;;
4821;SDS011;2425;47.794;13.068;2023-03-01T09:44:21;60.80;;;43.53;;
4821;SDS011;2425;47.794;13.068;2023-03-01T09:46:54;39.23;;;29.20;;
4821;SDS011;2425;47.794;13.068;2023-03-01T09:49:23;31.80;;;22.93;;
4821;SDS011;2425;47.794;13.068;2023-03-01T09:51:57;30.80;;;21.90;;
4821;SDS011;2425;47.794;13.068;2023-03-01T09:54:26;24.73;;;19.80;;
4821;SDS011;2425;47.794;13.068;2023-03-01T09:57:01;32.47;;;21.93;;
4821;SDS011;2425;47.794;13.068;2023-03-01T09:59:35;25.33;;;19.90;;
4821;SDS011;2425;47.794;13.068;2023-03-01T10:02:14;35.10;;;20.43;;
4821;SDS011;2425;47.794;13.068;2023-03-01T10:04:48;29.03;;;20.77;;
4821;SDS011;2425;47.794;13.068;2023-03-01T10:07:20;24.10;;;18.73;;
4821;SDS011;2425;47.794;13.068;2023-03-01T10:09:52;26.87;;;17.30;;
4821;SDS011;2425;47.794;13.068;2023-03-01T10:12:19;21.60;;;17.50;;
4821;SDS011;2425;47.794;13.068;2023-03-01T10:14:51;25.93;;;18.30;;
4821;SDS011;2425;47.794;13.068;2023-03-01T10:17:24;25.33;;;16.00;;
4821;SDS011;2425;47.794;13.068;2023-03-01T10:19:54;25.23;;;16.73;;
4821;SDS011;2425;47.794;13.068;2023-03-01T10:22:24;22.50;;;16.23;;
4821;SDS011;2425;47.794;13.068;2023-03-01T10:24:54;25.13;;;17.90;;
4821;SDS011;2425;47.794;13.068;2023-03-01T10:27:23;33.20;;;23.30;;
4821;SDS011;2425;47.794;13.068;2023-03-01T10:29:53;19.27;;;15.27;;
4821;SDS011;2425;47.794;13.068;2023-03-01T10:32:22;18.73;;;14.40;;
4821;SDS011;2425;47.794;13.068;2023-03-01T10:34:49;20.50;;;15.80;;
4821;SDS011;2425;47.794;13.068;2023-03-01T10:37:16;18.50;;;15.50;;
4821;SDS011;2425;47.794;13.068;2023-03-01T10:39:57;19.13;;;13.57;;
4821;SDS011;2425;47.794;13.068;2023-03-01T10:42:26;15.63;;;13.83;;
4821;SDS011;2425;47.794;13.068;2023-03-01T10:44:55;16.80;;;13.73;;
4821;SDS011;2425;47.794;13.068;2023-03-01T10:47:22;15.47;;;12.97;;
4821;SDS011;2425;47.794;13.068;2023-03-01T10:50:01;16.73;;;11.33;;
4821;SDS011;2425;47.794;13.068;2023-03-01T10:52:31;16.70;;;12.40;;
4821;SDS011;2425;47.794;13.068;2023-03-01T10:55:01;17.33;;;13.43;;
4821;SDS011;2425;47.794;13.068;2023-03-01T10:57:34;13.80;;;11.60;;
4821;SDS011;2425;47.794;13.068;2023-03-01T11:00:16;13.97;;;11.83;;
4821;SDS011;2425;47.794;13.068;2023-03-01T11:02:47;12.27;;;10.97;;
4821;SDS011;2425;47.794;13.068;2023-03-01T11:05:20;13.97;;;12.10;;
4821;SDS011;2425;47.794;13.068;2023-03-01T11:07:50;15.60;;;11.30;;
4821;SDS011;2425;47.794;13.068;2023-03-01T11:10:21;14.10;;;11.80;;
4821;SDS011;2425;47.794;13.068;2023-03-01T11:12:50;22.23;;;13.47;;
4821;SDS011;2425;47.794;13.068;2023-03-01T11:15:21;18.47;;;13.70;;
4821;SDS011;2425;47.794;13.068;2023-03-01T11:17:50;15.00;;;11.93;;
4821;SDS011;2425;47.794;13.068;2023-03-01T11:20:20;29.57;;;20.33;;
4821;SDS011;2425;47.794;13.068;2023-03-01T11:22:52;38.60;;;26.60;;
4821;SDS011;2425;47.794;13.068;2023-03-01T11:25:22;20.50;;;15.07;;
4821;SDS011;2425;47.794;13.068;2023-03-01T11:27:51;18.30;;;14.00;;
4821;SDS011;2425;47.794;13.068;2023-03-01T11:30:19;20.03;;;13.97;;
4821;SDS011;2425;47.794;13.068;2023-03-01T11:32:50;16.47;;;12.33;;
4821;SDS011;2425;47.794;13.068;2023-03-01T11:35:20;17.00;;;13.37;;
4821;SDS011;2425;47.794;13.068;2023-03-01T11:37:52;14.80;;;12.07;;
4821;SDS011;2425;47.794;13.068;2023-03-01T11:40:27;14.67;;;11.43;;
4821;SDS011;2425;47.794;13.068;2023-03-01T11:43:00;14.97;;;11.43;;
4821;SDS011;2425;47.794;13.068;2023-03-01T11:45:34;19.50;;;12.10;;
4821;SDS011;2425;47.794;13.068;2023-03-01T11:48:11;15.27;;;12.60;;
4821;SDS011;2425;47.794;13.068;2023-03-01T11:50:50;46.23;;;28.17;;
4821;SDS011;2425;47.794;13.068;2023-03-01T11:56:16;16.00;;;12.00;;
4821;SDS011;2425;47.794;13.068;2023-03-01T11:58:54;14.00;;;11.37;;
4821;SDS011;2425;47.794;13.068;2023-03-01T12:01:33;14.20;;;11.37;;
4821;SDS011;2425;47.794;13.068;2023-03-01T12:07:04;15.93;;;9.70;;
4821;SDS011;2425;47.794;13.068;2023-03-01T12:12:29;10.93;;;9.80;;
4821;SDS011;2425;47.794;13.068;2023-03-01T12:18:01;13.77;;;10.77;;
4821;SDS011;2425;47.794;13.068;2023-03-01T12:20:49;12.83;;;10.50;;
4821;SDS011;2425;47.794;13.068;2023-03-01T12:23:24;11.23;;;10.10;;
4821;SDS011;2425;47.794;13.068;2023-03-01T12:26:10;11.33;;;9.90;;
4821;SDS011;2425;47.794;13.068;2023-03-01T12:28:50;14.40;;;10.37;;
4821;SDS011;2425;47.794;13.068;2023-03-01T12:34:34;12.30;;;10.40;;
4821;SDS011;2425;47.794;13.068;2023-03-01T12:37:21;13.17;;;9.93;;
4821;SDS011;2425;47.794;13.068;2023-03-01T12:42:45;32.17;;;13.90;;
4821;SDS011;2425;47.794;13.068;2023-03-01T12:45:30;24.57;;;12.83;;
4821;SDS011;2425;47.794;13.068;2023-03-01T12:48:06;25.83;;;13.43;;
4821;SDS011;2425;47.794;13.068;2023-03-01T12:50:40;30.37;;;13.87;;
4821;SDS011;2425;47.794;13.068;2023-03-01T12:53:13;16.67;;;10.53;;
4821;SDS011;2425;47.794;13.068;2023-03-01T12:55:46;32.27;;;14.60;;
4821;SDS011;2425;47.794;13.068;2023-03-01T12:58:17;45.33;;;25.80;;
4821;SDS011;2425;47.794;13.068;2023-03-01T13:00:53;29.43;;;16.23;;
4821;SDS011;2425;47.794;13.068;2023-03-01T13:03:30;27.50;;;15.20;;
4821;SDS011;2425;47.794;13.068;2023-03-01T13:06:06;32.87;;;15.37;;
4821;SDS011;2425;47.794;13.068;2023-03-01T13:08:37;36.27;;;15.00;;
4821;SDS011;2425;47.794;13.068;2023-03-01T13:11:11;28.10;;;15.13;;
4821;SDS011;2425;47.794;13.068;2023-03-01T13:13:42;26.87;;;12.53;;
4821;SDS011;2425;47.794;13.068;2023-03-01T13:19:12;21.83;;;12.07;;
4821;SDS011;2425;47.794;13.068;2023-03-01T13:21:40;31.23;;;18.03;;
4821;SDS011;2425;47.794;13.068;2023-03-01T13:29:43;25.33;;;13.50;;
4821;SDS011;2425;47.794;13.068;2023-03-01T13:32:19;20.07;;;11.37;;
4821;SDS011;2425;47.794;13.068;2023-03-01T13:34:57;19.73;;;12.17;;
4821;SDS011;2425;47.794;13.068;2023-03-01T13:37:32;23.47;;;12.77;;
4821;SDS011;2425;47.794;13.068;2023-03-01T13:40:03;17.37;;;11.20;;
4821;SDS011;2425;47.794;13.068;2023-03-01T13:42:49;21.80;;;11.63;;
4821;SDS011;2425;47.794;13.068;2023-03-01T13:45:20;15.93;;;11.67;;
4821;SDS011;2425;47.794;13.068;2023-03-01T13:47:52;20.03;;;12.00;;
4821;SDS011;2425;47.794;13.068;2023-03-01T13:50:24;15.57;;;10.57;;
4821;SDS011;2425;47.794;13.068;2023-03-01T13:52:55;20.90;;;11.33;;
4821;SDS011;2425;47.794;13.068;2023-03-01T13:55:25;16.10;;;10.33;;
4821;SDS011;2425;47.794;13.068;2023-03-01T13:57:56;17.20;;;11.10;;
4821;SDS011;2425;47.794;13.068;2023-03-01T14:00:31;20.43;;;12.03;;
4821;SDS011;2425;47.794;13.068;2023-03-01T14:03:08;16.97;;;11.33;;
4821;SDS011;2425;47.794;13.068;2023-03-01T14:05:37;14.80;;;10.63;;
4821;SDS011;2425;47.794;13.068;2023-03-01T14:08:05;17.83;;;10.57;;
4821;SDS011;2425;47.794;13.068;2023-03-01T14:10:47;14.03;;;10.30;;
4821;SDS011;2425;47.794;13.068;2023-03-01T14:13:37;15.03;;;11.00;;
4821;SDS011;2425;47.794;13.068;2023-03-01T14:16:12;22.83;;;12.17;;
4821;SDS011;2425;47.794;13.068;2023-03-01T14:18:50;28.10;;;23.00;;
4821;SDS011;2425;47.794;13.068;2023-03-01T14:21:21;22.48;;;15.30;;
4821;SDS011;2425;47.794;13.068;2023-03-01T14:23:50;19.37;;;13.00;;
4821;SDS011;2425;47.794;13.068;2023-03-01T14:26:20;16.70;;;11.90;;
4821;SDS011;2425;47.794;13.068;2023-03-01T14:28:47;12.63;;;11.03;;
4821;SDS011;2425;47.794;13.068;2023-03-01T14:31:36;22.03;;;12.03;;
4821;SDS011;2425;47.794;13.068;2023-03-01T14:34:05;18.30;;;11.90;;
4821;SDS011;2425;47.794;13.068;2023-03-01T14:36:32;19.73;;;11.90;;
4821;SDS011;2425;47.794;13.068;2023-03-01T14:39:00;16.27;;;12.23;;
4821;SDS011;2425;47.794;13.068;2023-03-01T14:41:31;15.80;;;11.20;;
4821;SDS011;2425;47.794;13.068;2023-03-01T14:44:01;15.57;;;11.20;;
4821;SDS011;2425;47.794;13.068;2023-03-01T14:46:30;13.63;;;11.00;;
4821;SDS011;2425;47.794;13.068;2023-03-01T14:49:02;15.27;;;11.17;;
4821;SDS011;2425;47.794;13.068;2023-03-01T14:51:32;14.00;;;10.50;;
4821;SDS011;2425;47.794;13.068;2023-03-01T14:54:01;17.07;;;10.47;;
4821;SDS011;2425;47.794;13.068;2023-03-01T14:56:28;13.10;;;10.00;;
4821;SDS011;2425;47.794;13.068;2023-03-01T14:59:09;16.17;;;9.87;;
4821;SDS011;2425;47.794;13.068;2023-03-01T15:01:36;12.70;;;10.40;;
4821;SDS011;2425;47.794;13.068;2023-03-01T15:04:03;15.37;;;10.13;;
4821;SDS011;2425;47.794;13.068;2023-03-01T15:06:32;17.40;;;10.47;;
4821;SDS011;2425;47.794;13.068;2023-03-01T15:08:59;12.50;;;10.10;;
4821;SDS011;2425;47.794;13.068;2023-03-01T15:11:27;20.00;;;10.77;;
4821;SDS011;2425;47.794;13.068;2023-03-01T15:13:55;13.27;;;10.67;;
4821;SDS011;2425;47.794;13.068;2023-03-01T15:16:22;14.97;;;10.50;;
4821;SDS011;2425;47.794;13.068;2023-03-01T15:18:51;13.60;;;9.70;;
4821;SDS011;2425;47.794;13.068;2023-03-01T15:21:20;14.03;;;10.83;;
4821;SDS011;2425;47.794;13.068;2023-03-01T15:23:52;15.80;;;10.60;;
4821;SDS011;2425;47.794;13.068;2023-03-01T15:26:27;15.83;;;10.47;;
4821;SDS011;2425;47.794;13.068;2023-03-01T15:28:56;16.00;;;9.30;;
4821;SDS011;2425;47.794;13.068;2023-03-01T15:31:25;11.13;;;9.43;;